If you wish to contribute or participate in the discussions about articles you are invited to join SKYbrary as a registered user

 Actions

Ely Airport

From SKYbrary Wiki

KELY
Airport
ICAO: KELY
Summary
Name Ely Airport
Region North America
Territory United States US.gif
Location Ely, Nevada
Serving
Coordinates 39° 17' 58.10" N, 114° 50' 5.23" W
Runways
Designator Length Width Surface ROPS
12/30 1467 m4,812.992 ft
18 m59.055 ft
ASP yes/yes
18/36 1834 m6,017.06 ft
46 m150.919 ft
ASP yes/yes


METAR
Observation KELY 220653Z AUTO 00000KT 10SM CLR M02/M09 A3042 RMK AO2 SLP278 T10171089
Station Ely, Ely Airport
Date/Time 22 October 2019 06:53:00
Wind direction
Wind speed 00 kts
Lowest cloud amount n/a
Temperature
Dew point
Humidity 57%
QNH hPa
Weather condition n/a

CFIT
Tag(s) Altimeter Temperature Error Correction
RE
Tag(s) Hot and High Operations

Ely Airport

ICAO: KELY IATA: ELY

Yelland Field

Description

Ely Airport (Yelland Field) is a public use airport located 5km2.7 nm
5,000 m
16,404.199 ft
northeast of Ely, in White Pine County, Nevada.

Climatology

Semi-arid climate (Köppen climate classification BSk) - Little precipitation, hot summers and cold winters, sometimes with large changes in temperature in a 24 hour period.


Maps

Terrain

Loading map...

Airport Layout

Loading map...


Accidents & Serious Incidents at or in vicinity of KELY

None on SKYbrary